Time;durP1;ratioP1;P1;durP2;ratioP2;P2;SDS_P1;SDS_P2;PMS_P1;PMS_P2;Temp;Humidity;BMP_temperature;BMP_pressure;BME280_temperature;BME280_humidity;BME280_pressure;Samples;Min_cycle;Max_cycle;Signal;HPM_P1;HPM_P2
2022/02/07 00:01:07;;;;;;;22.27;21.07;;;18.60;51.20;;;;;;5090053;28;20458;-44
2022/02/07 00:03:41;;;;;;;21.13;20.23;;;18.50;51.40;;;;;;5084947;28;20941;-44
2022/02/07 00:06:08;;;;;;;21.40;20.40;;;18.40;51.60;;;;;;5072096;28;20470;-44
2022/02/07 00:08:35;;;;;;;22.07;21.17;;;18.30;51.90;;;;;;5071830;28;20490;-44
2022/02/07 00:11:04;;;;;;;21.70;20.70;;;18.30;51.90;;;;;;5071508;28;20452;-45
2022/02/07 00:13:30;;;;;;;21.30;20.40;;;18.30;51.90;;;;;;5071599;28;20956;-43
2022/02/07 00:15:57;;;;;;;21.70;20.70;;;18.20;51.90;;;;;;5071347;28;20454;-45
2022/02/07 00:18:24;;;;;;;21.20;20.30;;;18.10;52.30;;;;;;5083875;28;20944;-43
2022/02/07 00:20:52;;;;;;;22.03;21.03;;;18.10;52.30;;;;;;5092022;28;20446;-43
2022/02/07 00:23:19;;;;;;;21.87;20.87;;;18.10;52.50;;;;;;5091664;28;21041;-43
2022/02/07 00:25:46;;;;;;;21.70;20.70;;;18.10;52.40;;;;;;5091186;28;20450;-46
2022/02/07 00:28:14;;;;;;;21.87;20.87;;;18.00;52.20;;;;;;5091632;28;20485;-43
2022/02/07 00:30:41;;;;;;;21.10;20.20;;;17.90;52.50;;;;;;5091235;28;20446;-45
2022/02/07 00:33:08;;;;;;;21.97;20.97;;;17.80;52.60;;;;;;5073033;28;20448;-43
2022/02/07 00:35:35;;;;;;;21.20;20.30;;;17.80;52.70;;;;;;5073898;28;20980;-43
2022/02/07 00:38:07;;;;;;;21.50;20.57;;;17.70;52.90;;;;;;5075312;28;20921;-43
2022/02/07 00:40:45;;;;;;;22.00;20.90;;;17.60;53.30;;;;;;5094651;28;20522;-45
2022/02/07 00:43:30;;;;;;;21.50;20.50;;;17.60;53.40;;;;;;5095598;28;20998;-43
2022/02/07 00:46:03;;;;;;;21.73;20.73;;;17.60;53.60;;;;;;5087364;28;20535;-43
2022/02/07 00:48:30;;;;;;;21.70;20.70;;;17.50;53.70;;;;;;5075166;28;20519;-45
2022/02/07 00:50:57;;;;;;;22.07;20.97;;;17.40;54.00;;;;;;5075182;28;20454;-43
2022/02/07 00:53:24;;;;;;;22.00;21.00;;;17.40;54.00;;;;;;5075277;28;20740;-43
2022/02/07 00:55:51;;;;;;;21.67;20.50;;;17.30;54.30;;;;;;5084486;28;20442;-43
2022/02/07 00:58:20;;;;;;;21.97;20.97;;;17.30;54.40;;;;;;5095528;28;20851;-43
2022/02/07 01:00:47;;;;;;;21.67;20.70;;;17.30;54.40;;;;;;5082052;28;20542;-43
2022/02/07 01:03:13;;;;;;;22.13;21.13;;;17.30;54.40;;;;;;5074992;28;20448;-43
2022/02/07 01:05:41;;;;;;;22.17;20.97;;;17.30;54.50;;;;;;5074500;28;20475;-43
2022/02/07 01:08:09;;;;;;;21.20;20.20;;;17.30;54.60;;;;;;5074656;28;20447;-44
2022/02/07 01:10:44;;;;;;;21.80;20.80;;;17.20;54.60;;;;;;5074858;28;20454;-44
2022/02/07 01:13:19;;;;;;;21.90;20.90;;;17.10;55.20;;;;;;5077837;28;20445;-43
2022/02/07 01:15:55;;;;;;;22.40;21.40;;;17.00;54.70;;;;;;5054642;28;20534;-42
2022/02/07 01:21:56;;;;;;;21.80;20.80;;;17.00;55.00;;;;;;5082267;28;20431;-43
2022/02/07 01:49:40;;;;;;;21.67;20.67;;;16.70;55.90;;;;;;5070497;28;20471;-43
2022/02/07 01:52:34;;;;;;;21.30;20.40;;;16.70;56.00;;;;;;5074070;28;20497;-44
2022/02/07 01:55:07;;;;;;;21.47;20.57;;;16.60;56.00;;;;;;5074199;28;20474;-44
2022/02/07 01:57:34;;;;;;;21.80;20.80;;;16.70;56.00;;;;;;5090977;28;20457;-44
2022/02/07 02:00:01;;;;;;;21.80;20.80;;;16.50;56.10;;;;;;5093627;28;20439;-43
2022/02/07 02:02:28;;;;;;;21.13;20.23;;;16.60;56.30;;;;;;5091637;28;20451;-43
2022/02/07 02:04:56;;;;;;;21.30;20.20;;;16.60;56.20;;;;;;5093449;28;20478;-44
2022/02/07 02:07:23;;;;;;;21.30;20.30;;;16.60;56.40;;;;;;5093825;28;20815;-44
2022/02/07 02:09:50;;;;;;;21.63;20.73;;;16.60;56.40;;;;;;5093143;28;20641;-44
2022/02/07 02:12:17;;;;;;;21.23;20.33;;;16.60;56.50;;;;;;5094016;28;20450;-44
2022/02/07 02:14:56;;;;;;;21.97;20.90;;;16.60;56.50;;;;;;5093521;28;21058;-44
2022/02/07 02:20:55;;;;;;;21.00;20.10;;;16.50;56.40;;;;;;5082046;28;20423;-45
2022/02/07 02:34:53;;;;;;;21.67;20.57;;;16.30;57.00;;;;;;5077924;28;20483;-43
2022/02/07 02:37:16;;;;;;;21.57;20.47;;;16.40;57.00;;;;;;5092627;28;20854;-43
2022/02/07 02:45:33;;;;;;;21.70;20.70;;;16.40;57.00;;;;;;5082161;28;20597;-43
2022/02/07 02:48:04;;;;;;;21.70;20.70;;;16.30;56.90;;;;;;5086043;28;20968;-44
2022/02/07 02:50:32;;;;;;;21.40;20.40;;;16.30;57.20;;;;;;5092463;28;20474;-43
2022/02/07 02:53:01;;;;;;;21.60;20.60;;;16.20;57.30;;;;;;5089299;28;20457;-44
2022/02/07 02:55:30;;;;;;;22.30;21.30;;;16.20;57.40;;;;;;5085307;28;20463;-43
2022/02/07 02:57:57;;;;;;;22.13;20.77;;;16.20;57.50;;;;;;5072315;28;20956;-43
2022/02/07 03:00:24;;;;;;;21.47;20.47;;;16.20;57.60;;;;;;5072703;28;20448;-43
2022/02/07 03:02:51;;;;;;;21.30;20.40;;;16.10;57.80;;;;;;5072670;28;20456;-43
2022/02/07 03:05:18;;;;;;;22.83;21.73;;;16.10;57.90;;;;;;5072178;28;21010;-44
2022/02/07 03:07:45;;;;;;;21.67;20.57;;;16.10;58.00;;;;;;5088317;28;20457;-43
2022/02/07 03:10:22;;;;;;;21.37;20.47;;;16.10;58.30;;;;;;5092727;28;20512;-44
2022/02/07 03:13:02;;;;;;;21.37;20.33;;;16.10;58.50;;;;;;5092857;28;20446;-43
2022/02/07 03:18:12;;;;;;;21.53;20.53;;;16.00;58.90;;;;;;5060425;28;20488;-43
2022/02/07 03:20:39;;;;;;;21.10;20.20;;;15.90;59.00;;;;;;5084433;28;20954;-43
2022/02/07 03:23:06;;;;;;;21.80;20.80;;;16.00;59.10;;;;;;5092309;28;20827;-43
2022/02/07 03:25:33;;;;;;;21.60;20.60;;;15.90;59.20;;;;;;5092338;28;20462;-46
2022/02/07 03:28:01;;;;;;;21.60;20.60;;;15.90;59.30;;;;;;5079994;28;20444;-45
2022/02/07 03:30:28;;;;;;;20.53;19.63;;;15.90;59.40;;;;;;5072029;28;20486;-43
2022/02/07 03:32:55;;;;;;;21.50;20.50;;;15.90;59.60;;;;;;5072066;28;20458;-44
2022/02/07 03:35:22;;;;;;;21.03;20.13;;;15.90;59.50;;;;;;5071790;28;20468;-43
2022/02/07 03:37:49;;;;;;;21.20;20.20;;;15.90;59.50;;;;;;5082401;28;20447;-44
2022/02/07 03:40:16;;;;;;;21.30;20.30;;;15.80;59.60;;;;;;5092347;28;20442;-43
2022/02/07 03:42:43;;;;;;;21.53;20.53;;;15.80;60.10;;;;;;5077028;28;20493;-44
2022/02/07 03:45:11;;;;;;;21.27;20.37;;;15.70;60.10;;;;;;5071716;28;21011;-45
2022/02/07 03:47:38;;;;;;;20.97;20.07;;;15.70;60.30;;;;;;5071808;28;20450;-44
2022/02/07 03:50:06;;;;;;;21.10;20.20;;;15.70;60.50;;;;;;5071737;28;20505;-43
2022/02/07 03:52:33;;;;;;;21.20;20.30;;;15.70;60.90;;;;;;5071764;28;20504;-43
2022/02/07 03:55:00;;;;;;;21.23;20.23;;;15.70;61.60;;;;;;5071825;28;20474;-44
2022/02/07 03:57:27;;;;;;;21.10;20.20;;;15.70;61.00;;;;;;5067861;28;20455;-44
2022/02/07 03:59:54;;;;;;;21.20;20.30;;;15.70;61.50;;;;;;5071766;28;20941;-43
2022/02/07 04:02:22;;;;;;;21.10;20.20;;;15.90;61.80;;;;;;5071726;28;20467;-43
2022/02/07 04:04:55;;;;;;;21.53;20.60;;;15.90;61.60;;;;;;5071431;28;20475;-43
2022/02/07 04:07:22;;;;;;;21.30;20.30;;;16.00;61.70;;;;;;5071571;28;20452;-43
2022/02/07 04:09:53;;;;;;;21.30;20.40;;;16.00;61.10;;;;;;5076652;28;20477;-44
2022/02/07 04:12:23;;;;;;;21.40;20.30;;;15.90;61.70;;;;;;5091523;28;20538;-44
2022/02/07 04:14:50;;;;;;;20.47;19.67;;;16.00;61.80;;;;;;5091790;28;20463;-44
2022/02/07 04:17:21;;;;;;;21.27;20.27;;;16.00;61.80;;;;;;5091308;28;21124;-43
2022/02/07 04:19:56;;;;;;;21.13;20.00;;;16.20;61.60;;;;;;5091707;28;20450;-43
2022/02/07 04:22:24;;;;;;;19.93;19.13;;;16.10;61.20;;;;;;5091556;28;20553;-44
2022/02/07 04:24:51;;;;;;;20.60;19.70;;;16.10;61.50;;;;;;5091183;28;20477;-43
2022/02/07 04:27:18;;;;;;;20.93;20.00;;;16.00;61.90;;;;;;5089391;28;20447;-43
2022/02/07 04:29:45;;;;;;;21.50;20.60;;;16.00;62.00;;;;;;5091595;28;20489;-43
2022/02/07 04:32:11;;;;;;;21.10;20.13;;;16.00;61.90;;;;;;5079749;28;20443;-43
2022/02/07 04:34:39;;;;;;;21.13;20.23;;;16.00;61.80;;;;;;5081735;28;20464;-43
2022/02/07 04:37:07;;;;;;;20.80;19.90;;;15.90;62.10;;;;;;5090990;28;20454;-43
2022/02/07 04:39:34;;;;;;;20.73;19.80;;;16.00;62.00;;;;;;5091603;28;20435;-43
2022/02/07 04:42:05;;;;;;;21.00;20.10;;;16.00;62.00;;;;;;5074425;28;20443;-43
2022/02/07 04:44:38;;;;;;;21.47;20.50;;;16.00;62.30;;;;;;5071297;28;20554;-43
2022/02/07 04:47:15;;;;;;;20.90;19.90;;;16.00;62.20;;;;;;5070959;28;20539;-46
2022/02/07 04:52:41;;;;;;;20.50;19.60;;;16.00;62.40;;;;;;5069287;28;20466;-44
2022/02/07 04:55:14;;;;;;;20.97;19.93;;;16.00;62.50;;;;;;5080013;28;20462;-43
2022/02/07 04:57:58;;;;;;;20.50;19.60;;;16.00;62.10;;;;;;5091476;28;20443;-43
2022/02/07 05:03:10;;;;;;;21.20;20.30;;;15.90;62.90;;;;;;5087730;28;20868;-43
2022/02/07 05:13:57;;;;;;;21.20;20.30;;;15.90;63.10;;;;;;5086978;28;20970;-43
2022/02/07 05:16:26;;;;;;;20.93;20.03;;;15.90;63.70;;;;;;5070873;28;20475;-43
2022/02/07 05:18:57;;;;;;;21.70;20.70;;;15.90;63.30;;;;;;5090181;28;20447;-43
2022/02/07 05:21:25;;;;;;;21.60;20.57;;;15.90;63.30;;;;;;5093371;28;20449;-45
2022/02/07 05:23:53;;;;;;;21.50;20.50;;;15.80;63.50;;;;;;5088579;28;20975;-43
2022/02/07 05:26:21;;;;;;;20.97;20.00;;;15.80;63.90;;;;;;5094609;28;20449;-43
2022/02/07 05:28:48;;;;;;;20.50;19.60;;;15.90;64.00;;;;;;5075662;28;20951;-42
2022/02/07 05:31:18;;;;;;;21.70;20.70;;;15.90;63.80;;;;;;5074241;28;20529;-43
2022/02/07 05:33:45;;;;;;;20.93;20.00;;;15.80;63.90;;;;;;5084556;28;20470;-43
2022/02/07 05:36:12;;;;;;;20.90;20.00;;;15.80;64.70;;;;;;5094082;28;20454;-43
2022/02/07 05:38:43;;;;;;;21.23;20.23;;;15.90;65.20;;;;;;5074588;28;20448;-44
2022/02/07 05:41:13;;;;;;;21.00;20.00;;;15.90;65.10;;;;;;5083695;28;20447;-43
2022/02/07 05:43:44;;;;;;;21.47;20.40;;;15.80;65.30;;;;;;5084280;28;20450;-43
2022/02/07 05:46:11;;;;;;;21.40;20.40;;;15.80;65.90;;;;;;5073959;28;20444;-45
2022/02/07 05:48:37;;;;;;;21.33;20.30;;;15.80;66.10;;;;;;5074076;28;20443;-42
2022/02/07 05:51:04;;;;;;;21.57;20.47;;;15.80;67.10;;;;;;5079397;28;20487;-44
2022/02/07 05:53:31;;;;;;;22.80;21.50;;;16.30;66.20;;;;;;5073880;28;20443;-43
2022/02/07 05:55:58;;;;;;;21.70;20.63;;;16.90;63.90;;;;;;5073873;28;20901;-43
2022/02/07 05:58:27;;;;;;;21.50;20.50;;;17.30;61.70;;;;;;5073866;28;20451;-44
2022/02/07 06:00:55;;;;;;;22.10;21.00;;;17.70;59.80;;;;;;5059777;28;20530;-44
2022/02/07 06:03:22;;;;;;;22.43;21.27;;;18.10;58.70;;;;;;5073824;28;20917;-44
2022/02/07 06:05:49;;;;;;;21.73;20.63;;;18.50;57.60;;;;;;5085395;28;20447;-44
2022/02/07 06:08:16;;;;;;;22.83;21.40;;;18.70;56.80;;;;;;5079197;28;20455;-45
2022/02/07 06:10:44;;;;;;;22.60;21.30;;;18.80;57.70;;;;;;5073753;28;20482;-47
2022/02/07 06:13:13;;;;;;;23.23;21.73;;;19.00;58.10;;;;;;5074342;28;20490;-45
2022/02/07 06:15:41;;;;;;;22.63;21.20;;;19.20;58.60;;;;;;5065809;28;20525;-45
2022/02/07 06:18:08;;;;;;;24.37;22.67;;;19.20;58.80;;;;;;5073587;28;20478;-45
2022/02/07 06:20:34;;;;;;;23.00;21.43;;;19.30;58.40;;;;;;5073705;28;21133;-45
2022/02/07 06:23:01;;;;;;;23.33;21.73;;;19.50;57.60;;;;;;5073427;28;20485;-46
2022/02/07 06:25:28;;;;;;;23.80;22.20;;;19.50;56.90;;;;;;5073188;28;20471;-47
2022/02/07 06:27:55;;;;;;;23.80;22.33;;;19.60;56.20;;;;;;5073304;28;20444;-46
2022/02/07 06:30:21;;;;;;;23.20;22.00;;;19.60;55.40;;;;;;5072490;28;20883;-45
2022/02/07 06:32:50;;;;;;;23.07;21.67;;;19.60;54.90;;;;;;5071622;28;20458;-45
2022/02/07 06:35:17;;;;;;;22.93;21.63;;;19.60;54.50;;;;;;5073057;28;20463;-45
2022/02/07 06:37:44;;;;;;;23.03;21.20;;;19.60;54.00;;;;;;5073286;28;20448;-45
2022/02/07 06:40:11;;;;;;;22.80;21.30;;;19.60;53.30;;;;;;5073188;28;20800;-45
2022/02/07 06:42:38;;;;;;;23.20;21.80;;;19.70;53.20;;;;;;5073046;28;20447;-45
2022/02/07 06:45:06;;;;;;;24.80;23.50;;;19.70;52.90;;;;;;5073078;28;21138;-45
2022/02/07 06:47:33;;;;;;;29.70;28.30;;;19.70;52.60;;;;;;5072929;28;20539;-45
2022/02/07 06:50:01;;;;;;;29.80;28.30;;;19.70;52.10;;;;;;5072916;28;20479;-45
2022/02/07 06:52:27;;;;;;;28.40;27.20;;;19.70;52.00;;;;;;5072905;28;20451;-45
2022/02/07 06:54:54;;;;;;;27.47;26.13;;;19.70;51.90;;;;;;5072870;28;20944;-46
2022/02/07 06:57:22;;;;;;;32.57;30.77;;;19.70;51.70;;;;;;5072495;28;20447;-46
2022/02/07 06:59:49;;;;;;;35.70;34.10;;;19.70;51.60;;;;;;5072630;28;20456;-46
2022/02/07 07:02:18;;;;;;;32.40;30.87;;;19.70;51.50;;;;;;5072627;28;20450;-46
2022/02/07 07:04:45;;;;;;;32.70;30.70;;;19.70;51.40;;;;;;5072442;28;20482;-46
2022/02/07 07:07:14;;;;;;;31.87;30.30;;;19.70;51.20;;;;;;5072491;28;20444;-45
2022/02/07 07:09:43;;;;;;;35.40;33.90;;;19.70;51.00;;;;;;5072490;28;20447;-45
2022/02/07 07:12:11;;;;;;;34.53;32.97;;;19.60;50.90;;;;;;5072451;28;20531;-47
2022/02/07 07:14:44;;;;;;;27.93;26.53;;;19.60;50.80;;;;;;5072315;28;20499;-46
2022/02/07 07:17:11;;;;;;;28.20;26.70;;;19.60;50.70;;;;;;5072237;28;20526;-45
2022/02/07 07:19:37;;;;;;;29.43;28.13;;;19.60;50.60;;;;;;5072367;28;20925;-44
2022/02/07 07:22:05;;;;;;;32.17;30.03;;;19.60;50.50;;;;;;5072296;28;20440;-45
2022/02/07 07:24:35;;;;;;;34.40;32.90;;;19.60;50.40;;;;;;5072364;28;20467;-45
2022/02/07 07:27:02;;;;;;;37.33;35.73;;;19.50;50.30;;;;;;5072082;28;20878;-46
2022/02/07 07:29:32;;;;;;;36.10;34.50;;;19.50;50.20;;;;;;5072138;28;20479;-45
2022/02/07 07:32:02;;;;;;;32.20;30.80;;;19.50;50.20;;;;;;5072086;28;20490;-45
2022/02/07 07:34:30;;;;;;;34.40;32.70;;;19.50;50.10;;;;;;5072008;28;20463;-45
2022/02/07 07:36:57;;;;;;;34.43;32.93;;;19.50;50.10;;;;;;5071841;28;20451;-45
2022/02/07 07:39:24;;;;;;;29.23;27.93;;;19.40;50.00;;;;;;5072009;28;20451;-44
2022/02/07 07:41:53;;;;;;;34.83;33.10;;;19.40;49.90;;;;;;5071917;28;20813;-45
2022/02/07 07:44:24;;;;;;;36.60;34.90;;;19.40;49.90;;;;;;5071084;28;20467;-46
2022/02/07 07:46:55;;;;;;;32.20;30.70;;;19.40;49.90;;;;;;5071918;28;20448;-45
2022/02/07 07:49:31;;;;;;;36.93;35.43;;;19.30;49.90;;;;;;5071884;28;20451;-45
2022/02/07 07:52:04;;;;;;;35.30;33.70;;;19.30;49.80;;;;;;5071734;28;20489;-45
2022/02/07 07:54:44;;;;;;;34.70;33.20;;;19.30;49.80;;;;;;5071668;28;20468;-45
2022/02/07 08:02:43;;;;;;;33.90;32.40;;;19.20;49.70;;;;;;5071724;28;20457;-45
2022/02/07 08:05:20;;;;;;;35.53;33.67;;;19.20;49.60;;;;;;5071424;28;20882;-45
2022/02/07 08:07:52;;;;;;;36.10;34.40;;;19.20;49.60;;;;;;5071581;28;20500;-45
2022/02/07 08:10:37;;;;;;;32.43;30.83;;;19.20;49.60;;;;;;5071539;28;20479;-45
2022/02/07 08:13:05;;;;;;;34.60;32.90;;;19.10;49.50;;;;;;5071694;28;20883;-46
2022/02/07 08:15:32;;;;;;;37.63;36.03;;;19.10;49.50;;;;;;5071309;28;20474;-45
2022/02/07 08:17:59;;;;;;;31.80;30.40;;;19.10;49.50;;;;;;5071535;28;20447;-45
2022/02/07 08:20:25;;;;;;;38.90;37.00;;;19.10;49.50;;;;;;5071526;28;20953;-45
2022/02/07 08:22:52;;;;;;;31.60;30.10;;;19.00;49.30;;;;;;5071556;28;20447;-46
2022/02/07 08:25:19;;;;;;;34.80;33.30;;;19.00;49.40;;;;;;5071281;28;20467;-45
2022/02/07 08:27:45;;;;;;;32.50;30.80;;;19.00;49.40;;;;;;5071312;28;20459;-45
2022/02/07 08:30:14;;;;;;;34.90;33.40;;;19.00;49.40;;;;;;5071332;28;20444;-45
2022/02/07 08:32:40;;;;;;;32.70;31.20;;;19.00;49.50;;;;;;5071446;28;20444;-45
2022/02/07 08:35:08;;;;;;;30.80;29.40;;;19.10;49.60;;;;;;5071256;28;20534;-45
2022/02/07 08:37:35;;;;;;;30.03;28.73;;;19.20;49.50;;;;;;5071155;28;20444;-47
2022/02/07 08:40:01;;;;;;;28.67;27.27;;;19.30;49.20;;;;;;5071337;28;20439;-47
2022/02/07 08:42:28;;;;;;;31.00;29.57;;;19.40;49.00;;;;;;5071421;28;20440;-45
2022/02/07 08:44:55;;;;;;;34.70;33.20;;;19.40;48.90;;;;;;5071292;28;20464;-45
2022/02/07 08:47:24;;;;;;;35.03;33.43;;;19.40;48.80;;;;;;5071096;28;20817;-45
2022/02/07 08:49:50;;;;;;;33.47;31.87;;;19.50;48.70;;;;;;5071195;28;20502;-45
2022/02/07 08:52:18;;;;;;;30.70;29.30;;;19.60;48.60;;;;;;5071112;28;20840;-44
2022/02/07 08:54:45;;;;;;;31.00;29.60;;;19.60;48.40;;;;;;5071012;28;20467;-45
2022/02/07 08:57:16;;;;;;;31.87;30.50;;;19.60;48.20;;;;;;5074654;28;20562;-45
2022/02/07 08:59:56;;;;;;;32.63;31.17;;;19.60;48.10;;;;;;5075136;28;20444;-47
2022/02/07 09:02:49;;;;;;;28.33;26.93;;;19.60;48.10;;;;;;5075032;28;20446;-47
2022/02/07 09:05:33;;;;;;;34.10;32.50;;;19.60;48.00;;;;;;5074670;28;20886;-45
2022/02/07 09:08:09;;;;;;;31.53;30.17;;;19.60;47.90;;;;;;5074873;28;20447;-46
2022/02/07 09:10:36;;;;;;;39.40;37.63;;;19.60;47.80;;;;;;5074767;28;20565;-45
2022/02/07 09:13:02;;;;;;;32.10;30.80;;;19.60;47.80;;;;;;5074867;28;20448;-45
2022/02/07 09:15:33;;;;;;;31.50;30.10;;;19.60;47.80;;;;;;5074469;28;20462;-45
2022/02/07 09:18:04;;;;;;;30.47;29.07;;;19.60;47.80;;;;;;5074654;28;20444;-45
2022/02/07 09:20:32;;;;;;;34.27;32.77;;;19.60;47.70;;;;;;5074799;28;20464;-45
2022/02/07 09:22:59;;;;;;;34.13;32.63;;;19.60;47.70;;;;;;5074642;28;20443;-44
2022/02/07 09:25:25;;;;;;;32.33;30.93;;;19.50;47.60;;;;;;5074260;28;20494;-44
2022/02/07 09:27:52;;;;;;;34.00;32.60;;;19.60;47.70;;;;;;5074398;28;20443;-45
2022/02/07 09:30:19;;;;;;;27.70;26.60;;;19.50;47.60;;;;;;5074334;28;20481;-45
2022/02/07 09:32:46;;;;;;;31.40;30.13;;;19.50;47.60;;;;;;5074430;28;20941;-46
2022/02/07 09:35:15;;;;;;;31.27;29.83;;;19.50;47.60;;;;;;5074125;28;20464;-45
2022/02/07 09:37:42;;;;;;;32.37;31.00;;;19.40;47.60;;;;;;5074221;28;20450;-46
2022/02/07 09:40:10;;;;;;;37.60;36.00;;;19.40;47.60;;;;;;5074275;28;20455;-45
2022/02/07 09:42:41;;;;;;;32.40;31.00;;;19.50;47.60;;;;;;5074214;28;20959;-44
2022/02/07 09:45:13;;;;;;;33.80;32.30;;;19.50;47.60;;;;;;5074189;28;20463;-45
2022/02/07 09:47:40;;;;;;;33.10;31.70;;;19.40;47.50;;;;;;5074269;28;20444;-44
2022/02/07 09:50:07;;;;;;;29.17;27.87;;;19.30;47.50;;;;;;5074054;28;20443;-45
2022/02/07 09:52:35;;;;;;;38.80;37.30;;;19.30;47.50;;;;;;5074033;28;20486;-44
2022/02/07 09:55:02;;;;;;;38.57;37.03;;;19.30;47.50;;;;;;5073941;28;20464;-46
2022/02/07 09:57:29;;;;;;;32.37;31.07;;;19.30;47.50;;;;;;5073767;28;20466;-45
2022/02/07 09:59:56;;;;;;;30.80;29.50;;;19.30;47.60;;;;;;5073852;28;20446;-45
2022/02/07 10:02:32;;;;;;;39.10;37.50;;;19.30;47.60;;;;;;5073890;28;20917;-45
2022/02/07 10:05:03;;;;;;;35.00;33.50;;;19.30;47.50;;;;;;5073741;28;20562;-45
2022/02/07 10:07:38;;;;;;;32.70;31.13;;;19.20;47.50;;;;;;5072551;28;20475;-45
2022/02/07 10:10:22;;;;;;;34.00;32.57;;;19.20;47.40;;;;;;5073710;28;20451;-47
2022/02/07 10:15:37;;;;;;;34.70;33.10;;;19.20;47.60;;;;;;5072299;28;20459;-45
2022/02/07 10:18:12;;;;;;;33.90;32.50;;;19.30;47.70;;;;;;5073524;28;20455;-44
2022/02/07 10:38:05;;;;;;;27.17;25.97;;;19.90;46.70;;;;;;5073325;28;20418;-45
2022/02/07 10:40:36;;;;;;;29.87;28.47;;;20.00;46.70;;;;;;5073173;28;20850;-44
2022/02/07 10:43:12;;;;;;;32.67;31.27;;;19.90;46.60;;;;;;5073194;28;20508;-45
2022/02/07 10:45:54;;;;;;;32.00;30.50;;;19.90;46.60;;;;;;5072963;28;20471;-45
2022/02/07 10:48:40;;;;;;;29.30;28.00;;;20.00;46.60;;;;;;5073024;28;20443;-45
2022/02/07 10:51:10;;;;;;;28.60;27.40;;;20.00;46.40;;;;;;5073025;28;20862;-44
2022/02/07 10:53:38;;;;;;;28.30;27.10;;;20.10;46.30;;;;;;5072741;28;20446;-46
2022/02/07 10:56:05;;;;;;;31.17;29.77;;;20.10;46.30;;;;;;5072645;28;20959;-44
2022/02/07 10:58:34;;;;;;;27.63;26.37;;;20.00;46.20;;;;;;5072827;28;20815;-43
2022/02/07 11:01:08;;;;;;;34.73;33.23;;;20.10;46.20;;;;;;5072723;28;20854;-45
2022/02/07 11:03:41;;;;;;;34.17;32.47;;;20.10;46.20;;;;;;5072639;28;20884;-44
2022/02/07 11:06:10;;;;;;;35.10;33.50;;;20.10;46.10;;;;;;5072450;28;20466;-43
2022/02/07 11:08:47;;;;;;;31.40;29.90;;;20.10;46.10;;;;;;5072517;28;21038;-44
2022/02/07 11:11:42;;;;;;;36.20;34.57;;;20.10;46.00;;;;;;5072718;28;20479;-44
2022/02/07 11:14:29;;;;;;;31.87;30.53;;;20.00;45.90;;;;;;5072447;28;20475;-43
2022/02/07 11:17:11;;;;;;;29.80;28.50;;;19.90;45.90;;;;;;5072426;28;20471;-53
2022/02/07 11:19:50;;;;;;;29.53;28.17;;;19.90;46.00;;;;;;5084355;28;20489;-44
2022/02/07 11:22:36;;;;;;;29.40;28.00;;;19.90;46.40;;;;;;5091927;28;20936;-44
2022/02/07 11:25:22;;;;;;;31.50;30.10;;;19.90;46.50;;;;;;5092411;28;20463;-44
2022/02/07 11:27:51;;;;;;;31.93;30.37;;;19.80;46.70;;;;;;5092494;28;20449;-44
2022/02/07 11:30:21;;;;;;;31.23;29.83;;;19.80;47.20;;;;;;5074790;28;20451;-44
2022/02/07 11:32:53;;;;;;;30.83;29.50;;;19.80;47.50;;;;;;5071987;28;20486;-46
2022/02/07 11:35:23;;;;;;;31.93;30.53;;;19.80;47.70;;;;;;5071939;28;20468;-45
2022/02/07 11:38:14;;;;;;;32.30;30.80;;;19.80;47.80;;;;;;5082275;28;20976;-44
2022/02/07 11:40:42;;;;;;;31.07;29.67;;;19.80;47.90;;;;;;5092232;28;20453;-45
2022/02/07 11:43:11;;;;;;;31.90;30.50;;;19.90;48.00;;;;;;5092076;28;20431;-45
2022/02/07 11:45:53;;;;;;;33.23;31.83;;;19.80;47.90;;;;;;5091950;28;20584;-44
2022/02/07 11:48:30;;;;;;;32.67;31.37;;;19.90;48.10;;;;;;5077395;28;20444;-44
2022/02/07 11:50:59;;;;;;;32.70;31.30;;;20.00;48.20;;;;;;5071799;28;20435;-46
2022/02/07 11:53:35;;;;;;;34.17;32.57;;;20.50;48.10;;;;;;5071744;28;20505;-44
2022/02/07 11:56:16;;;;;;;31.37;29.97;;;20.70;47.60;;;;;;5071710;28;20944;-46
2022/02/07 11:58:49;;;;;;;32.33;30.87;;;20.60;47.40;;;;;;5071675;28;20458;-44
2022/02/07 12:01:42;;;;;;;32.27;30.77;;;20.70;47.30;;;;;;5071726;28;20443;-46
2022/02/07 12:04:09;;;;;;;30.13;28.77;;;20.80;47.10;;;;;;5071856;28;20868;-44
2022/02/07 12:06:36;;;;;;;32.53;31.03;;;20.90;46.90;;;;;;5071292;28;20451;-46
2022/02/07 12:09:03;;;;;;;36.10;34.60;;;21.30;46.50;;;;;;5071599;28;20439;-45
2022/02/07 12:11:44;;;;;;;40.20;38.50;;;21.60;45.90;;;;;;5071381;28;20483;-46
2022/02/07 12:14:30;;;;;;;31.23;29.90;;;22.00;45.30;;;;;;5071371;28;20463;-45
2022/02/07 12:16:58;;;;;;;29.73;28.33;;;22.50;44.60;;;;;;5071568;28;20577;-45
2022/02/07 12:19:36;;;;;;;35.27;33.73;;;22.70;43.80;;;;;;5071505;28;20483;-44
2022/02/07 12:22:14;;;;;;;33.43;31.93;;;22.70;43.50;;;;;;5071600;28;20447;-44
2022/02/07 12:24:54;;;;;;;32.67;31.00;;;22.70;43.30;;;;;;5071479;28;20840;-44
2022/02/07 12:27:22;;;;;;;32.87;31.40;;;22.70;43.20;;;;;;5071269;28;20479;-44
2022/02/07 12:30:05;;;;;;;34.00;32.30;;;22.70;43.10;;;;;;5071562;28;20454;-44
2022/02/07 12:32:34;;;;;;;34.60;33.10;;;22.50;42.80;;;;;;5075526;28;20483;-43
2022/02/07 12:35:01;;;;;;;32.87;31.47;;;22.30;43.00;;;;;;5075575;28;20463;-44
2022/02/07 12:37:27;;;;;;;31.70;30.30;;;22.20;43.10;;;;;;5075185;28;20852;-44
2022/02/07 12:39:57;;;;;;;33.63;32.03;;;22.10;43.20;;;;;;5075418;28;20443;-44
2022/02/07 12:42:24;;;;;;;30.70;29.30;;;22.20;43.30;;;;;;5075490;28;20443;-44
2022/02/07 12:44:54;;;;;;;30.40;29.10;;;22.30;43.10;;;;;;5075233;28;20466;-45
2022/02/07 12:47:21;;;;;;;33.70;32.20;;;22.20;42.90;;;;;;5075118;28;20994;-48
2022/02/07 12:49:51;;;;;;;36.40;34.80;;;22.00;42.80;;;;;;5075273;28;20470;-46
2022/02/07 12:52:17;;;;;;;38.20;36.50;;;21.80;42.90;;;;;;5075079;28;20482;-47
2022/02/07 12:54:44;;;;;;;32.40;30.90;;;21.70;43.20;;;;;;5075159;28;20466;-45
2022/02/07 12:57:11;;;;;;;35.53;34.00;;;21.70;43.40;;;;;;5074812;28;20447;-45
2022/02/07 12:59:38;;;;;;;30.80;29.40;;;22.00;43.40;;;;;;5074943;28;20451;-46
2022/02/07 13:02:05;;;;;;;36.00;34.50;;;22.30;43.10;;;;;;5075002;28;20439;-45
2022/02/07 13:04:33;;;;;;;33.80;32.17;;;22.50;42.60;;;;;;5074654;28;20471;-48
2022/02/07 13:07:05;;;;;;;33.37;31.87;;;22.40;42.30;;;;;;5074785;28;20466;-46
2022/02/07 13:09:40;;;;;;;34.07;32.60;;;22.30;42.30;;;;;;5075015;28;20505;-46
2022/02/07 13:12:14;;;;;;;30.10;28.60;;;22.40;42.40;;;;;;5074727;28;20898;-46
2022/02/07 13:14:42;;;;;;;30.33;28.90;;;22.40;42.20;;;;;;5074804;28;20549;-46
2022/02/07 13:17:10;;;;;;;26.83;25.63;;;22.30;42.20;;;;;;5074551;28;20443;-45
2022/02/07 13:19:38;;;;;;;31.50;30.03;;;22.30;42.30;;;;;;5074735;28;20444;-48
2022/02/07 13:22:07;;;;;;;32.60;31.20;;;22.30;42.10;;;;;;5074690;28;20448;-46
2022/02/07 13:24:36;;;;;;;35.00;33.20;;;22.40;42.00;;;;;;5074531;28;20463;-45
2022/02/07 13:27:06;;;;;;;35.80;34.20;;;22.50;42.00;;;;;;5074336;28;20455;-48
2022/02/07 13:29:41;;;;;;;32.00;30.60;;;22.50;41.90;;;;;;5074653;28;20466;-45
2022/02/07 13:32:08;;;;;;;35.43;33.93;;;22.50;41.80;;;;;;5074419;28;20555;-47
2022/02/07 13:34:37;;;;;;;34.97;33.47;;;22.50;41.70;;;;;;5074272;28;20463;-45
2022/02/07 13:37:14;;;;;;;31.70;30.30;;;22.60;41.80;;;;;;5074330;28;20455;-45
2022/02/07 13:39:54;;;;;;;31.27;29.87;;;22.80;41.60;;;;;;5074391;28;20478;-45
2022/02/07 13:42:25;;;;;;;29.20;27.90;;;23.00;41.30;;;;;;5074346;28;20921;-45
2022/02/07 13:44:57;;;;;;;32.90;31.40;;;22.90;41.10;;;;;;5074248;28;20460;-46
2022/02/07 13:47:25;;;;;;;33.40;31.90;;;22.80;41.20;;;;;;5073995;28;20444;-48
2022/02/07 13:49:56;;;;;;;29.70;28.40;;;22.80;41.30;;;;;;5074119;28;20455;-47
2022/02/07 13:52:29;;;;;;;31.53;30.10;;;22.60;41.30;;;;;;5073957;28;20487;-49
2022/02/07 13:55:10;;;;;;;31.77;30.37;;;22.60;41.60;;;;;;5074031;28;20490;-47
2022/02/07 13:57:52;;;;;;;33.30;31.80;;;22.50;41.60;;;;;;5073964;28;20929;-46
2022/02/07 14:00:20;;;;;;;33.00;31.60;;;22.30;41.60;;;;;;5073922;28;20447;-45
2022/02/07 14:02:47;;;;;;;37.37;35.87;;;22.20;41.90;;;;;;5073956;28;20443;-46
2022/02/07 14:05:14;;;;;;;35.83;34.33;;;22.10;42.00;;;;;;5073391;28;21015;-46
2022/02/07 14:07:53;;;;;;;35.30;33.80;;;22.00;42.00;;;;;;5073582;28;20444;-46
2022/02/07 14:10:22;;;;;;;36.13;34.60;;;22.00;42.10;;;;;;5073823;28;20447;-45
2022/02/07 14:12:51;;;;;;;35.83;34.33;;;22.00;42.20;;;;;;5073685;28;20502;-45
2022/02/07 14:15:18;;;;;;;33.13;31.70;;;22.10;42.10;;;;;;5073513;28;20887;-50